createdAt,value
2018-07-21T00:00:01.432Z,11.80
2018-07-21T00:01:01.426Z,11.20
2018-07-21T00:02:01.410Z,9.00
2018-07-21T00:03:01.400Z,9.10
2018-07-21T00:04:01.399Z,13.00
2018-07-21T00:05:01.383Z,11.90
2018-07-21T00:06:01.368Z,13.70
2018-07-21T00:07:01.358Z,13.90
2018-07-21T00:08:01.350Z,11.50
2018-07-21T00:09:01.359Z,13.10
2018-07-21T00:10:01.331Z,12.00
2018-07-21T00:11:01.328Z,11.00
2018-07-21T00:12:01.304Z,10.60
2018-07-21T00:13:01.290Z,13.20
2018-07-21T00:14:01.284Z,14.00
2018-07-21T00:15:01.271Z,9.80
2018-07-21T00:16:01.260Z,11.20
2018-07-21T00:17:01.249Z,12.00
2018-07-21T00:18:01.236Z,12.80
2018-07-21T00:19:01.228Z,9.70
2018-07-21T00:20:01.215Z,9.40
2018-07-21T00:21:01.202Z,12.80
2018-07-21T00:22:01.198Z,12.10
2018-07-21T00:23:01.183Z,10.20
2018-07-21T00:24:01.171Z,13.20
2018-07-21T00:25:01.158Z,9.60
2018-07-21T00:26:01.149Z,9.60
2018-07-21T00:27:01.139Z,11.00
2018-07-21T00:28:01.129Z,11.20
2018-07-21T00:29:01.132Z,9.90
2018-07-21T00:30:01.118Z,10.80
2018-07-21T00:31:01.100Z,9.20
2018-07-21T00:32:01.088Z,12.70
2018-07-21T00:33:01.074Z,12.00
2018-07-21T00:34:01.060Z,10.10
2018-07-21T00:35:01.056Z,12.50
2018-07-21T00:36:01.037Z,14.50
2018-07-21T00:37:01.027Z,9.50
2018-07-21T00:38:01.018Z,10.00
2018-07-21T00:39:01.008Z,10.70
2018-07-21T00:40:00.993Z,12.60
2018-07-21T00:41:00.982Z,13.60
2018-07-21T00:42:00.982Z,11.80
2018-07-21T00:43:00.960Z,10.80
2018-07-21T00:44:00.949Z,11.30
2018-07-21T00:45:00.938Z,14.10
2018-07-21T00:46:00.926Z,13.70
2018-07-21T00:47:00.922Z,15.10
2018-07-21T00:48:00.905Z,12.90
2018-07-21T00:49:00.892Z,10.60
2018-07-21T00:50:00.881Z,11.90
2018-07-21T00:51:00.870Z,10.60
2018-07-21T00:52:00.859Z,13.70
2018-07-21T00:53:00.856Z,15.90
2018-07-21T00:54:00.846Z,11.70
2018-07-21T00:55:00.829Z,12.70
2018-07-21T00:56:00.819Z,11.20
2018-07-21T00:57:00.805Z,10.70
2018-07-21T00:58:00.792Z,12.50
2018-07-21T00:59:00.780Z,13.00
2018-07-21T01:00:00.770Z,11.60
2018-07-21T01:01:00.760Z,12.10
2018-07-21T01:02:00.748Z,12.10
2018-07-21T01:03:00.739Z,12.40
2018-07-21T01:04:00.726Z,11.40
2018-07-21T01:05:00.710Z,13.30
2018-07-21T01:06:00.701Z,14.10
2018-07-21T01:07:00.696Z,11.00
2018-07-21T01:08:00.684Z,13.70
2018-07-21T01:09:00.666Z,19.70
2018-07-21T01:10:00.663Z,12.30
2018-07-21T01:11:00.694Z,13.30
2018-07-21T01:12:00.633Z,16.90
2018-07-21T01:13:00.622Z,11.60
2018-07-21T01:14:00.612Z,10.90
2018-07-21T01:15:00.601Z,12.30
2018-07-21T01:16:00.591Z,12.70
2018-07-21T01:17:00.583Z,12.30
2018-07-21T01:18:00.565Z,15.20
2018-07-21T01:19:00.560Z,11.10
2018-07-21T01:20:00.543Z,15.40
2018-07-21T01:21:00.529Z,13.10
2018-07-21T01:22:00.520Z,13.30
2018-07-21T01:23:00.507Z,12.30
2018-07-21T01:24:00.498Z,14.50
2018-07-21T01:25:00.486Z,12.00
2018-07-21T01:26:00.476Z,11.90
2018-07-21T01:27:00.462Z,10.40
2018-07-21T01:28:00.454Z,19.10
2018-07-21T01:29:00.440Z,13.20
2018-07-21T01:30:00.430Z,13.80
2018-07-21T01:31:00.419Z,12.60
2018-07-21T01:32:00.406Z,13.90
2018-07-21T01:33:00.402Z,13.80
2018-07-21T01:34:00.384Z,14.40
2018-07-21T01:35:00.369Z,12.50
2018-07-21T01:36:00.358Z,17.30
2018-07-21T01:37:00.346Z,16.90
2018-07-21T01:39:00.323Z,13.60
2018-07-21T01:40:00.311Z,15.60
2018-07-21T01:41:00.299Z,13.10
2018-07-21T01:42:00.300Z,14.20
2018-07-21T01:43:01.188Z,13.50
2018-07-21T01:44:00.273Z,14.60
2018-07-21T01:45:00.252Z,11.80
2018-07-21T01:46:00.240Z,17.70
2018-07-21T01:47:00.230Z,15.60
2018-07-21T01:48:44.095Z,15.40
2018-07-21T01:49:44.090Z,17.30
2018-07-21T01:50:44.070Z,11.20
2018-07-21T01:51:44.081Z,12.80
2018-07-21T01:52:44.049Z,18.80
2018-07-21T01:53:44.036Z,13.60
2018-07-21T01:54:44.023Z,15.30
2018-07-21T01:55:44.016Z,12.20
2018-07-21T01:56:44.006Z,12.70
2018-07-21T01:58:48.257Z,13.20
2018-07-21T01:59:48.235Z,11.90
2018-07-21T02:00:48.222Z,15.70
2018-07-21T02:01:48.213Z,11.90
2018-07-21T02:02:48.200Z,16.40
2018-07-21T02:03:48.187Z,14.00
2018-07-21T02:04:48.176Z,13.60
2018-07-21T02:05:48.165Z,15.90
2018-07-21T02:06:48.158Z,12.90
2018-07-21T02:07:48.164Z,14.20
2018-07-21T02:08:48.179Z,14.20
2018-07-21T02:09:48.119Z,12.80
2018-07-21T02:10:48.108Z,15.70
2018-07-21T02:11:48.095Z,13.00
2018-07-21T02:12:48.153Z,12.30
2018-07-21T02:13:48.071Z,14.70
2018-07-21T02:14:48.061Z,15.40
2018-07-21T02:15:48.050Z,14.80
2018-07-21T02:16:48.088Z,15.00
2018-07-21T02:17:48.025Z,19.10
2018-07-21T02:18:48.015Z,13.20
2018-07-21T02:19:48.001Z,13.40
2018-07-21T02:20:47.992Z,12.40
2018-07-21T02:21:47.977Z,14.70
2018-07-21T02:22:47.968Z,14.80
2018-07-21T02:23:47.980Z,13.10
2018-07-21T02:24:47.943Z,16.70
2018-07-21T02:25:47.932Z,17.20
2018-07-21T02:26:47.922Z,16.20
2018-07-21T02:27:47.906Z,13.30
2018-07-21T02:28:47.898Z,14.40
2018-07-21T02:29:47.885Z,15.00
2018-07-21T02:30:47.872Z,16.70
2018-07-21T02:31:47.861Z,15.60
2018-07-21T02:32:47.849Z,12.10
2018-07-21T02:33:47.842Z,15.40
2018-07-21T02:34:47.829Z,13.40
2018-07-21T02:35:47.825Z,14.60
2018-07-21T02:36:47.817Z,16.70
2018-07-21T02:37:47.790Z,13.70
2018-07-21T02:38:47.778Z,17.40
2018-07-21T02:39:47.766Z,16.30
2018-07-21T02:40:47.756Z,11.70
2018-07-21T02:41:47.744Z,13.60
2018-07-21T02:42:47.731Z,14.00
2018-07-21T02:43:47.720Z,13.80
2018-07-21T02:44:47.713Z,14.40
2018-07-21T02:45:47.755Z,14.00
2018-07-21T02:46:47.686Z,14.50
2018-07-21T02:47:47.673Z,12.90
2018-07-21T02:48:47.660Z,15.50
2018-07-21T02:49:47.649Z,13.20
2018-07-21T02:50:47.637Z,14.80
2018-07-21T02:51:47.624Z,14.80
2018-07-21T02:52:47.615Z,14.50
2018-07-21T02:53:47.601Z,15.70
2018-07-21T02:54:47.626Z,14.50
2018-07-21T02:55:47.579Z,16.10
2018-07-21T02:56:47.565Z,11.30
2018-07-21T02:57:47.553Z,15.10
2018-07-21T02:58:47.541Z,14.40
2018-07-21T02:59:47.533Z,15.50
2018-07-21T03:00:47.520Z,13.60
2018-07-21T03:01:47.506Z,15.50
2018-07-21T03:02:47.494Z,15.00
2018-07-21T03:03:47.490Z,17.30
2018-07-21T03:04:47.476Z,13.20
2018-07-21T03:05:47.459Z,14.00
2018-07-21T03:06:47.447Z,14.80
2018-07-21T03:07:47.433Z,17.30
2018-07-21T03:08:47.421Z,15.50
2018-07-21T03:09:47.413Z,16.50
2018-07-21T03:10:47.407Z,15.00
2018-07-21T03:11:47.386Z,15.50
2018-07-21T03:12:47.375Z,13.50
2018-07-21T03:13:47.363Z,19.10
2018-07-21T03:14:47.350Z,15.30
2018-07-21T03:15:47.340Z,14.80
2018-07-21T03:16:47.326Z,13.30
2018-07-21T03:17:47.318Z,15.50
2018-07-21T03:18:47.302Z,13.90
2018-07-21T03:19:47.291Z,17.30
2018-07-21T03:20:47.279Z,19.10
2018-07-21T03:21:47.266Z,15.90
2018-07-21T03:22:47.261Z,18.10
2018-07-21T03:23:47.241Z,16.10
2018-07-21T03:24:47.229Z,13.20
2018-07-21T03:25:47.370Z,16.80
2018-07-21T03:26:47.205Z,21.70
2018-07-21T03:27:47.194Z,16.90
2018-07-21T03:28:47.181Z,14.40
2018-07-21T03:29:47.173Z,14.80
2018-07-21T03:30:47.170Z,18.20
2018-07-21T03:31:47.147Z,17.60
2018-07-21T03:32:47.133Z,14.80
2018-07-21T03:33:47.123Z,19.40
2018-07-21T03:34:47.109Z,14.90
2018-07-21T03:35:47.105Z,23.30
2018-07-21T03:36:47.084Z,16.00
2018-07-21T03:37:47.072Z,15.30
2018-07-21T03:38:47.061Z,12.60
2018-07-21T03:39:47.049Z,17.00
2018-07-21T03:40:47.037Z,14.70
2018-07-21T03:41:47.024Z,13.80
2018-07-21T03:42:47.013Z,16.30
2018-07-21T03:43:47.000Z,16.90
2018-07-21T03:44:46.997Z,14.90
2018-07-21T03:45:46.977Z,17.10
2018-07-21T03:46:46.965Z,17.00
2018-07-21T03:47:46.958Z,16.60
2018-07-21T03:48:46.943Z,14.80
2018-07-21T03:49:46.929Z,18.40
2018-07-21T03:50:46.922Z,15.10
2018-07-21T03:51:46.913Z,15.80
2018-07-21T03:52:46.892Z,14.50
2018-07-21T03:53:46.886Z,15.30
2018-07-21T03:54:46.868Z,17.50
2018-07-21T03:55:46.853Z,17.70
2018-07-21T03:56:46.844Z,17.20
2018-07-21T03:57:46.932Z,15.60
2018-07-21T03:58:46.820Z,16.00
2018-07-21T03:59:46.808Z,14.00
2018-07-21T04:00:46.795Z,16.80
2018-07-21T04:01:46.781Z,18.20
2018-07-21T04:02:46.769Z,16.50
2018-07-21T04:03:46.756Z,20.00
2018-07-21T04:04:46.745Z,20.60
2018-07-21T04:05:46.733Z,18.00
2018-07-21T04:06:46.721Z,15.50
2018-07-21T04:07:46.708Z,15.80
2018-07-21T04:08:46.697Z,18.40
2018-07-21T04:09:46.686Z,18.40
2018-07-21T04:10:46.676Z,17.20
2018-07-21T04:11:46.661Z,20.90
2018-07-21T04:12:46.648Z,17.10
2018-07-21T04:15:45.137Z,16.40
2018-07-21T04:16:45.124Z,18.60
2018-07-21T04:17:45.112Z,19.70
2018-07-21T04:18:45.101Z,19.50
2018-07-21T04:19:45.089Z,17.00
2018-07-21T04:20:45.074Z,13.70
2018-07-21T04:21:45.065Z,18.30
2018-07-21T04:22:45.200Z,16.20
2018-07-21T04:23:45.038Z,14.90
2018-07-21T04:24:45.025Z,17.50
2018-07-21T04:25:45.012Z,16.20
2018-07-21T04:26:45.002Z,17.80
2018-07-21T04:27:44.989Z,18.10
2018-07-21T04:28:44.975Z,17.90
2018-07-21T04:29:44.964Z,14.40
2018-07-21T04:30:44.951Z,18.80
2018-07-21T04:31:44.938Z,14.60
2018-07-21T04:32:44.926Z,18.20
2018-07-21T04:33:44.913Z,17.10
2018-07-21T04:34:44.901Z,17.50
2018-07-21T04:35:44.891Z,17.60
2018-07-21T04:36:44.886Z,17.30
2018-07-21T04:37:44.864Z,16.70
2018-07-21T04:38:44.853Z,14.30
2018-07-21T04:39:44.847Z,16.60
2018-07-21T04:40:44.827Z,17.20
2018-07-21T04:41:44.822Z,18.60
2018-07-21T04:42:44.803Z,18.10
2018-07-21T04:43:44.798Z,14.90
2018-07-21T04:44:44.777Z,17.10
2018-07-21T04:45:44.768Z,18.70
2018-07-21T04:46:44.755Z,18.50
2018-07-21T04:47:44.740Z,16.50
2018-07-21T04:48:44.732Z,18.20
2018-07-21T04:49:44.718Z,16.10
2018-07-21T04:50:44.705Z,20.60
2018-07-21T04:51:44.691Z,15.20
2018-07-21T04:52:44.680Z,15.70
2018-07-21T04:53:44.667Z,15.90
2018-07-21T04:54:44.653Z,19.50
2018-07-21T04:55:44.641Z,20.30
2018-07-21T04:56:44.643Z,15.60
2018-07-21T04:57:44.625Z,17.10
2018-07-21T04:58:44.609Z,15.20
2018-07-21T04:59:44.592Z,17.00
2018-07-21T05:00:44.664Z,19.40
2018-07-21T05:01:44.575Z,19.30
2018-07-21T05:02:44.563Z,19.70
2018-07-21T05:03:44.542Z,18.80
2018-07-21T05:04:44.537Z,20.80
2018-07-21T05:05:44.571Z,20.90
2018-07-21T05:06:44.506Z,18.70
2018-07-21T05:07:44.494Z,21.50
2018-07-21T05:08:44.483Z,16.50
2018-07-21T05:09:44.470Z,18.80
2018-07-21T05:10:44.457Z,21.20
2018-07-21T05:11:44.462Z,19.10
2018-07-21T05:12:44.432Z,24.10
2018-07-21T05:13:44.421Z,19.00
2018-07-21T05:14:44.415Z,18.70
2018-07-21T05:15:44.395Z,20.20
2018-07-21T05:16:44.382Z,19.70
2018-07-21T05:17:44.372Z,19.50
2018-07-21T05:18:44.360Z,22.30
2018-07-21T05:19:44.350Z,18.10
2018-07-21T05:20:44.345Z,19.80
2018-07-21T05:21:44.325Z,21.00
2018-07-21T05:22:44.315Z,23.10
2018-07-21T05:23:44.297Z,20.50
2018-07-21T05:24:44.290Z,17.60
2018-07-21T05:25:44.273Z,18.00
2018-07-21T05:26:44.270Z,20.60
2018-07-21T05:27:44.251Z,21.70
2018-07-21T05:28:44.238Z,21.10
2018-07-21T05:29:44.225Z,19.00
2018-07-21T05:30:44.212Z,18.80
2018-07-21T05:31:44.202Z,19.80
2018-07-21T05:32:44.195Z,19.10
2018-07-21T05:33:44.178Z,19.30
2018-07-21T05:34:44.165Z,19.90
2018-07-21T05:35:44.152Z,19.00
2018-07-21T05:36:44.139Z,18.40
2018-07-21T05:37:44.250Z,21.20
2018-07-21T05:38:44.116Z,23.80
2018-07-21T05:39:44.103Z,17.80
2018-07-21T05:40:44.097Z,20.30
2018-07-21T05:41:44.086Z,21.10
2018-07-21T05:42:44.071Z,20.00
2018-07-21T05:43:44.054Z,21.80
2018-07-21T05:44:44.045Z,19.20
2018-07-21T05:45:44.030Z,23.70
2018-07-21T05:46:44.033Z,20.20
2018-07-21T05:47:44.005Z,22.10
2018-07-21T05:48:44.043Z,21.90
2018-07-21T05:49:43.987Z,22.20
2018-07-21T05:50:43.970Z,22.20
2018-07-21T05:51:43.958Z,23.10
2018-07-21T05:52:43.946Z,19.50
2018-07-21T05:53:43.933Z,19.90
2018-07-21T05:54:43.924Z,22.60
2018-07-21T05:55:43.957Z,21.50
2018-07-21T05:56:43.901Z,19.30
2018-07-21T05:57:43.887Z,22.10
2018-07-21T05:58:43.947Z,20.90
2018-07-21T05:59:43.861Z,24.30
2018-07-21T06:00:43.860Z,22.20
2018-07-21T06:01:43.843Z,19.60
2018-07-21T06:02:43.912Z,22.00
2018-07-21T06:03:43.815Z,21.20
2018-07-21T06:04:43.803Z,20.20
2018-07-21T06:05:43.794Z,19.10
2018-07-21T06:06:43.781Z,23.90
2018-07-21T06:07:43.769Z,21.10
2018-07-21T06:08:43.797Z,19.50
2018-07-21T06:09:43.746Z,21.70
2018-07-21T06:10:43.743Z,21.50
2018-07-21T06:11:43.723Z,20.20
2018-07-21T06:12:43.715Z,21.80
2018-07-21T06:13:43.698Z,22.60
2018-07-21T06:14:43.687Z,19.60
2018-07-21T06:15:43.675Z,21.90
2018-07-21T06:16:43.671Z,21.50
2018-07-21T06:17:43.651Z,18.60
2018-07-21T06:18:43.657Z,24.10
2018-07-21T06:19:43.627Z,19.50
2018-07-21T06:20:43.624Z,19.80
2018-07-21T06:21:43.614Z,21.80
2018-07-21T06:22:43.593Z,19.10
2018-07-21T06:23:43.639Z,17.70
2018-07-21T06:24:43.570Z,22.10
2018-07-21T06:25:43.560Z,22.20
2018-07-21T06:26:43.548Z,23.40
2018-07-21T06:27:43.545Z,21.80
2018-07-21T06:28:43.526Z,20.20
2018-07-21T06:29:43.513Z,20.10
2018-07-21T06:30:43.502Z,18.50
2018-07-21T06:31:43.491Z,19.80
2018-07-21T06:32:43.482Z,19.20
2018-07-21T06:33:43.468Z,21.00
2018-07-21T06:34:43.467Z,18.80
2018-07-21T06:35:43.456Z,19.90
2018-07-21T06:36:43.436Z,21.70
2018-07-21T06:37:43.423Z,20.60
2018-07-21T06:38:43.414Z,18.40
2018-07-21T06:39:43.407Z,21.30
2018-07-21T06:40:43.404Z,20.20
2018-07-21T06:41:43.387Z,18.60
2018-07-21T06:42:43.371Z,20.00
2018-07-21T06:43:43.361Z,21.30
2018-07-21T06:44:43.350Z,19.10
2018-07-21T06:45:43.339Z,17.40
2018-07-21T06:46:43.329Z,19.60
2018-07-21T06:47:43.320Z,21.50
2018-07-21T06:48:43.309Z,20.10
2018-07-21T06:49:43.300Z,21.60
2018-07-21T06:50:43.305Z,20.40
2018-07-21T06:51:43.277Z,19.80
2018-07-21T06:52:43.268Z,17.50
2018-07-21T06:53:43.259Z,18.40
2018-07-21T06:54:43.249Z,16.60
2018-07-21T06:55:43.239Z,18.70
2018-07-21T06:56:43.236Z,18.00
2018-07-21T06:57:43.235Z,16.00
2018-07-21T06:58:43.210Z,18.80
2018-07-21T06:59:43.203Z,15.30
2018-07-21T07:00:43.202Z,17.60
2018-07-21T07:01:43.187Z,17.40
2018-07-21T07:02:43.184Z,16.60
2018-07-21T07:03:43.173Z,14.80
2018-07-21T07:04:43.208Z,18.50
2018-07-21T07:05:43.156Z,15.40
2018-07-21T07:06:43.165Z,20.30
2018-07-21T07:07:43.140Z,20.70
2018-07-21T07:08:43.141Z,20.40
2018-07-21T07:09:43.126Z,25.90
2018-07-21T07:10:43.126Z,17.10
2018-07-21T07:11:43.119Z,20.50
2018-07-21T07:12:43.110Z,21.50
2018-07-21T07:13:43.104Z,16.10
2018-07-21T07:14:43.091Z,17.10
2018-07-21T07:15:43.083Z,18.10
2018-07-21T07:16:43.082Z,15.60
2018-07-21T07:17:43.069Z,15.80
2018-07-21T07:18:43.061Z,17.60
2018-07-21T07:19:43.053Z,18.50
2018-07-21T07:20:43.049Z,20.90
2018-07-21T07:21:43.040Z,20.00
2018-07-21T07:22:43.040Z,17.60
2018-07-21T07:23:43.025Z,19.90
2018-07-21T07:24:43.018Z,15.30
2018-07-21T07:25:43.029Z,18.90
2018-07-21T07:26:43.015Z,18.20
2018-07-21T07:27:42.995Z,16.50
2018-07-21T07:28:42.989Z,17.60
2018-07-21T07:29:42.996Z,15.20
2018-07-21T07:30:42.980Z,17.00
2018-07-21T07:31:43.077Z,18.40
2018-07-21T07:32:42.969Z,16.00
2018-07-21T07:33:42.955Z,16.40
2018-07-21T07:34:43.036Z,17.00
2018-07-21T07:35:42.942Z,17.20
2018-07-21T07:36:42.933Z,14.60
2018-07-21T07:37:42.926Z,15.50
2018-07-21T07:38:42.917Z,15.20
2018-07-21T07:39:42.914Z,17.30
2018-07-21T07:40:42.907Z,17.00
2018-07-21T07:41:42.904Z,16.80
2018-07-21T07:42:42.890Z,18.00
2018-07-21T07:43:42.877Z,16.70
2018-07-21T07:44:42.870Z,14.80
2018-07-21T07:45:42.869Z,20.60
2018-07-21T07:46:42.854Z,16.10
2018-07-21T07:47:42.856Z,17.60
2018-07-21T07:48:42.840Z,18.00
2018-07-21T07:49:42.843Z,18.70
2018-07-21T07:50:42.829Z,15.80
2018-07-21T07:51:42.816Z,18.40
2018-07-21T07:52:42.816Z,15.30
2018-07-21T07:53:42.802Z,17.90
2018-07-21T07:54:42.793Z,16.70
2018-07-21T07:55:42.788Z,15.30
2018-07-21T07:56:42.781Z,16.60
2018-07-21T07:57:42.765Z,18.50
2018-07-21T07:58:42.758Z,16.00
2018-07-21T07:59:42.747Z,16.00
2018-07-21T08:00:42.839Z,16.80
2018-07-21T08:01:42.731Z,17.40
2018-07-21T08:02:42.722Z,19.20
2018-07-21T08:03:42.713Z,17.70
2018-07-21T08:04:42.706Z,16.50
2018-07-21T08:05:42.697Z,15.70
2018-07-21T08:06:42.688Z,19.40
2018-07-21T08:07:42.684Z,15.50
2018-07-21T08:08:42.680Z,15.80
2018-07-21T08:09:42.674Z,15.70
2018-07-21T08:10:42.652Z,16.80
2018-07-21T08:11:42.642Z,19.70
2018-07-21T08:12:42.633Z,15.60
2018-07-21T08:13:42.638Z,20.90
2018-07-21T08:14:42.618Z,17.30
2018-07-21T08:15:42.611Z,16.00
2018-07-21T08:16:42.601Z,16.40
2018-07-21T08:17:42.598Z,19.20
2018-07-21T08:18:42.585Z,20.40
2018-07-21T08:19:42.575Z,19.30
2018-07-21T08:20:42.589Z,17.80
2018-07-21T08:21:42.566Z,18.30
2018-07-21T08:22:42.550Z,24.00
2018-07-21T08:23:42.541Z,19.00
2018-07-21T08:24:42.534Z,19.90
2018-07-21T08:25:42.526Z,18.20
2018-07-21T08:26:42.518Z,19.50
2018-07-21T08:27:42.508Z,18.90
2018-07-21T08:28:42.509Z,18.40
2018-07-21T08:29:42.499Z,22.00
2018-07-21T08:30:42.484Z,22.30
2018-07-21T08:31:42.488Z,21.50
2018-07-21T08:32:42.469Z,21.30
2018-07-21T08:33:42.467Z,18.20
2018-07-21T08:34:42.475Z,24.40
2018-07-21T08:35:42.448Z,20.40
2018-07-21T08:36:42.438Z,19.40
2018-07-21T08:37:42.428Z,20.60
2018-07-21T08:38:42.420Z,19.00
2018-07-21T08:39:42.425Z,18.40
2018-07-21T08:40:42.404Z,20.70
2018-07-21T08:41:42.397Z,20.10
2018-07-21T08:42:42.388Z,19.50
2018-07-21T08:43:42.396Z,20.80
2018-07-21T08:44:42.378Z,22.30
2018-07-21T08:45:42.376Z,19.10
2018-07-21T08:46:42.356Z,19.30
2018-07-21T08:47:42.351Z,22.90
2018-07-21T08:48:42.349Z,21.20
2018-07-21T08:49:42.401Z,18.70
2018-07-21T08:50:42.332Z,16.10
2018-07-21T08:51:42.316Z,20.40
2018-07-21T08:52:42.309Z,17.70
2018-07-21T08:53:42.301Z,19.80
2018-07-21T08:54:42.299Z,20.70
2018-07-21T08:55:42.309Z,21.20
2018-07-21T08:56:42.277Z,21.20
2018-07-21T08:57:42.269Z,19.90
2018-07-21T08:58:42.267Z,22.10
2018-07-21T08:59:42.254Z,18.60
2018-07-21T09:00:42.245Z,22.90
2018-07-21T09:01:42.285Z,19.00
2018-07-21T09:02:42.238Z,17.70
2018-07-21T09:03:42.224Z,17.80
2018-07-21T09:04:42.220Z,18.60
2018-07-21T09:05:42.255Z,20.70
2018-07-21T09:06:42.202Z,23.40
2018-07-21T09:07:42.194Z,23.30
2018-07-21T09:08:42.190Z,27.50
2018-07-21T09:09:42.178Z,23.40
2018-07-21T09:10:42.172Z,21.20
2018-07-21T09:11:42.163Z,22.20
2018-07-21T09:12:42.157Z,21.00
2018-07-21T09:13:42.152Z,19.10
2018-07-21T09:14:42.141Z,24.60
2018-07-21T09:15:42.138Z,21.80
2018-07-21T09:16:42.133Z,17.60
2018-07-21T09:17:42.118Z,20.60
2018-07-21T09:18:42.113Z,16.60
2018-07-21T09:19:42.128Z,20.70
2018-07-21T09:20:42.112Z,22.30
2018-07-21T09:21:42.099Z,28.20
2018-07-21T09:22:42.087Z,18.50
2018-07-21T09:23:42.077Z,19.20
2018-07-21T09:24:42.070Z,20.80
2018-07-21T09:25:42.073Z,22.90
2018-07-21T09:26:42.059Z,19.00
2018-07-21T09:27:42.054Z,20.00
2018-07-21T09:28:42.041Z,24.80
2018-07-21T09:29:42.039Z,21.50
2018-07-21T09:30:42.026Z,16.20
2018-07-21T09:31:42.027Z,19.20
2018-07-21T09:32:42.019Z,23.60
2018-07-21T09:33:42.005Z,20.80
2018-07-21T09:34:42.000Z,23.30
2018-07-21T09:35:41.999Z,25.50
2018-07-21T09:36:41.993Z,19.10
2018-07-21T09:37:41.985Z,26.10
2018-07-21T09:38:41.983Z,18.00
2018-07-21T09:39:41.965Z,19.70
2018-07-21T09:40:41.968Z,20.40
2018-07-21T09:41:41.957Z,20.40
2018-07-21T09:42:41.953Z,21.70
2018-07-21T09:43:41.949Z,19.90
2018-07-21T09:44:41.933Z,20.00
2018-07-21T09:45:41.937Z,18.60
2018-07-21T09:46:41.923Z,20.60
2018-07-21T09:47:41.923Z,18.60
2018-07-21T09:48:41.921Z,20.20
2018-07-21T09:49:41.903Z,19.40
2018-07-21T09:50:41.894Z,18.80
2018-07-21T09:51:41.890Z,18.50
2018-07-21T09:52:41.893Z,19.30
2018-07-21T09:53:41.879Z,15.60
2018-07-21T09:54:41.880Z,23.40
2018-07-21T09:55:41.950Z,20.10
2018-07-21T09:56:41.878Z,15.20
2018-07-21T09:57:41.862Z,18.30
2018-07-21T09:58:41.862Z,18.60
2018-07-21T09:59:41.849Z,15.50
2018-07-21T10:00:41.848Z,17.10
2018-07-21T10:01:41.895Z,18.10
2018-07-21T10:02:41.826Z,16.00
2018-07-21T10:03:41.836Z,17.70
2018-07-21T10:04:41.961Z,20.20
2018-07-21T10:05:41.817Z,17.50
2018-07-21T10:06:41.809Z,17.30
2018-07-21T10:07:41.798Z,16.30
2018-07-21T10:08:41.790Z,15.00
2018-07-21T10:09:41.789Z,16.30
2018-07-21T10:10:41.782Z,16.10
2018-07-21T10:11:41.782Z,17.90
2018-07-21T10:12:41.770Z,15.70
2018-07-21T10:13:41.766Z,16.60
2018-07-21T10:14:41.762Z,16.90
2018-07-21T10:15:41.763Z,16.00
2018-07-21T10:16:41.757Z,23.10
2018-07-21T10:17:41.755Z,16.80
2018-07-21T10:18:41.746Z,21.60
2018-07-21T10:19:41.740Z,18.20
2018-07-21T10:20:41.775Z,14.70
2018-07-21T10:21:41.735Z,15.10
2018-07-21T10:22:41.748Z,19.80
2018-07-21T10:23:41.730Z,19.70
2018-07-21T10:24:41.725Z,16.90
2018-07-21T10:25:41.723Z,18.80
2018-07-21T10:26:41.721Z,15.70
2018-07-21T10:27:41.719Z,15.80
2018-07-21T10:28:41.719Z,15.50
2018-07-21T10:29:41.731Z,14.80
2018-07-21T10:30:41.731Z,14.70
2018-07-21T10:31:41.715Z,18.10
2018-07-21T10:32:41.715Z,15.20
2018-07-21T10:33:41.866Z,14.00
2018-07-21T10:34:41.720Z,13.10
2018-07-21T10:35:41.712Z,12.00
2018-07-21T10:36:41.718Z,15.10
2018-07-21T10:37:41.712Z,12.70
2018-07-21T10:38:41.729Z,13.40
2018-07-21T10:39:41.718Z,17.20
2018-07-21T10:40:41.718Z,12.90
2018-07-21T10:41:41.715Z,14.80
2018-07-21T10:42:41.711Z,11.40
2018-07-21T10:43:41.713Z,13.50
2018-07-21T10:44:41.717Z,12.80
2018-07-21T10:45:41.714Z,13.20
2018-07-21T10:46:41.716Z,21.00
2018-07-21T10:47:41.802Z,16.10
2018-07-21T10:48:41.718Z,11.90
2018-07-21T10:49:41.717Z,10.60
2018-07-21T10:50:41.754Z,11.30
2018-07-21T10:51:41.725Z,14.80
2018-07-21T10:52:41.719Z,12.10
2018-07-21T10:53:41.719Z,21.80
2018-07-21T10:54:41.721Z,14.50
2018-07-21T10:55:41.722Z,16.60
2018-07-21T10:56:41.725Z,15.20
2018-07-21T10:57:41.722Z,12.50
2018-07-21T10:58:41.723Z,11.70
2018-07-21T10:59:41.731Z,11.00
2018-07-21T11:00:41.724Z,15.40
2018-07-21T11:01:41.724Z,14.90
2018-07-21T11:02:41.725Z,15.60
2018-07-21T11:03:41.722Z,12.10
2018-07-21T11:04:41.722Z,12.70
2018-07-21T11:05:41.731Z,11.70
2018-07-21T11:06:41.724Z,14.40
2018-07-21T11:07:41.725Z,15.80
2018-07-21T11:08:41.720Z,11.80
2018-07-21T11:09:41.724Z,13.30
2018-07-21T11:10:41.824Z,11.90
2018-07-21T11:11:41.731Z,14.10
2018-07-21T11:12:41.718Z,12.30
2018-07-21T11:13:41.718Z,10.90
2018-07-21T11:14:41.717Z,13.00
2018-07-21T11:15:41.719Z,13.00
2018-07-21T11:16:41.717Z,14.10
2018-07-21T11:17:41.720Z,14.50
2018-07-21T11:18:41.720Z,13.30
2018-07-21T11:19:41.716Z,13.20
2018-07-21T11:20:41.722Z,12.70
2018-07-21T11:21:41.714Z,12.00
2018-07-21T11:22:41.732Z,13.70
2018-07-21T11:23:41.712Z,13.70
2018-07-21T11:24:41.715Z,15.80
2018-07-21T11:25:41.714Z,14.30
2018-07-21T11:26:41.712Z,17.30
2018-07-21T11:27:41.720Z,17.50
2018-07-21T11:28:41.863Z,13.30
2018-07-21T11:29:41.714Z,11.80
2018-07-21T11:30:41.716Z,15.90
2018-07-21T11:31:41.789Z,11.10
2018-07-21T11:32:41.718Z,14.90
2018-07-21T11:33:41.717Z,13.10
2018-07-21T11:34:41.722Z,13.30
2018-07-21T11:35:41.984Z,14.10
2018-07-21T11:36:41.723Z,11.60
2018-07-21T11:37:41.734Z,11.20
2018-07-21T11:38:41.727Z,13.00
2018-07-21T11:39:41.726Z,11.40
2018-07-21T11:40:41.755Z,12.90
2018-07-21T11:41:41.760Z,15.30
2018-07-21T11:42:41.745Z,15.00
2018-07-21T11:43:41.735Z,18.50
2018-07-21T11:44:41.741Z,12.00
2018-07-21T11:45:41.749Z,13.20
2018-07-21T11:46:41.758Z,10.70
2018-07-21T11:47:41.764Z,13.70
2018-07-21T11:48:41.756Z,14.70
2018-07-21T11:49:41.758Z,13.70
2018-07-21T11:50:41.756Z,11.70
2018-07-21T11:51:41.756Z,11.50
2018-07-21T11:52:41.758Z,13.80
2018-07-21T11:53:41.772Z,12.50
2018-07-21T11:54:41.798Z,14.50
2018-07-21T11:55:41.767Z,15.30
2018-07-21T11:56:41.776Z,14.30
2018-07-21T11:57:41.770Z,14.80
2018-07-21T11:58:41.779Z,11.70
2018-07-21T11:59:41.772Z,13.70
2018-07-21T12:00:41.771Z,11.30
2018-07-21T12:01:41.771Z,13.80
2018-07-21T12:02:41.774Z,16.80
2018-07-21T12:03:41.775Z,11.00
2018-07-21T12:04:41.924Z,15.00
2018-07-21T12:05:41.780Z,12.30
2018-07-21T12:06:41.773Z,16.20
2018-07-21T12:07:41.776Z,15.40
2018-07-21T12:08:41.775Z,15.30
2018-07-21T12:09:41.761Z,12.10
2018-07-21T12:10:41.761Z,11.30
2018-07-21T12:11:41.769Z,14.20
2018-07-21T12:12:41.762Z,13.50
2018-07-21T12:13:41.826Z,12.50
2018-07-21T12:14:41.760Z,12.80
2018-07-21T12:15:41.753Z,14.60
2018-07-21T12:16:41.745Z,12.40
2018-07-21T12:17:41.741Z,11.40
2018-07-21T12:18:41.737Z,11.90
2018-07-21T12:19:41.732Z,13.40
2018-07-21T12:20:41.729Z,12.40
2018-07-21T12:21:41.728Z,13.20
2018-07-21T12:22:41.729Z,12.30
2018-07-21T12:23:41.725Z,12.20
2018-07-21T12:24:41.735Z,12.30
2018-07-21T12:25:41.713Z,13.40
2018-07-21T12:26:41.711Z,11.70
2018-07-21T12:27:41.751Z,11.80
2018-07-21T12:28:41.699Z,18.20
2018-07-21T12:29:41.695Z,13.20
2018-07-21T12:30:41.694Z,14.60
2018-07-21T12:31:41.686Z,12.80
2018-07-21T12:32:41.687Z,14.10
2018-07-21T12:33:41.704Z,14.10
2018-07-21T12:34:41.676Z,12.30
2018-07-21T12:35:41.674Z,14.10
2018-07-21T12:36:41.665Z,13.20
2018-07-21T12:37:41.659Z,15.70
2018-07-21T12:38:41.652Z,12.30
2018-07-21T12:39:41.649Z,12.50
2018-07-21T12:40:41.642Z,13.00
2018-07-21T12:41:41.652Z,11.30
2018-07-21T12:42:41.634Z,13.10
2018-07-21T12:43:41.630Z,14.90
2018-07-21T12:44:41.629Z,15.10
2018-07-21T12:45:41.636Z,14.20
2018-07-21T12:46:41.618Z,14.50
2018-07-21T12:47:41.608Z,12.50
2018-07-21T12:48:41.604Z,13.10
2018-07-21T12:49:41.600Z,14.70
2018-07-21T12:50:41.594Z,11.10
2018-07-21T12:51:41.590Z,15.80
2018-07-21T12:52:41.583Z,12.40
2018-07-21T12:53:41.579Z,15.60
2018-07-21T12:54:41.584Z,14.20
2018-07-21T12:55:41.564Z,14.20
2018-07-21T12:56:41.561Z,12.60
2018-07-21T12:57:41.576Z,13.30